sensor_id;sensor_type;location;lat;lon;timestamp;pressure;altitude;pressure_sealevel;temperature;humidity
79645;BME280;69117;47.148;18.954;2023-06-22T00:02:59;100834.28;;;21.54;47.76
79645;BME280;69117;47.148;18.954;2023-06-22T00:06:01;100831.00;;;21.52;47.79
79645;BME280;69117;47.148;18.954;2023-06-22T00:09:03;100825.81;;;21.43;47.79
79645;BME280;69117;47.148;18.954;2023-06-22T00:12:05;100811.47;;;21.23;47.83
79645;BME280;69117;47.148;18.954;2023-06-22T00:15:07;100809.00;;;21.28;47.65
79645;BME280;69117;47.148;18.954;2023-06-22T00:18:09;100809.69;;;21.37;47.65
79645;BME280;69117;47.148;18.954;2023-06-22T00:21:12;100826.19;;;21.34;47.79
79645;BME280;69117;47.148;18.954;2023-06-22T00:24:14;100822.44;;;21.28;47.74
79645;BME280;69117;47.148;18.954;2023-06-22T00:27:15;100833.44;;;21.33;47.77
79645;BME280;69117;47.148;18.954;2023-06-22T00:30:18;100809.84;;;21.35;47.92
79645;BME280;69117;47.148;18.954;2023-06-22T00:33:20;100797.06;;;21.37;47.72
79645;BME280;69117;47.148;18.954;2023-06-22T00:36:21;100796.66;;;21.47;47.84
79645;BME280;69117;47.148;18.954;2023-06-22T00:39:26;100805.34;;;21.42;47.85
79645;BME280;69117;47.148;18.954;2023-06-22T00:42:27;100812.53;;;21.35;47.80
79645;BME280;69117;47.148;18.954;2023-06-22T00:45:29;100814.22;;;21.36;47.67
79645;BME280;69117;47.148;18.954;2023-06-22T00:48:31;100808.59;;;21.31;47.69
79645;BME280;69117;47.148;18.954;2023-06-22T00:51:32;100813.34;;;21.29;47.83
79645;BME280;69117;47.148;18.954;2023-06-22T00:54:36;100806.50;;;21.20;47.70
79645;BME280;69117;47.148;18.954;2023-06-22T00:57:37;100814.97;;;21.23;47.85
79645;BME280;69117;47.148;18.954;2023-06-22T01:00:40;100805.25;;;21.16;47.74
79645;BME280;69117;47.148;18.954;2023-06-22T01:03:42;100820.97;;;21.12;47.80
79645;BME280;69117;47.148;18.954;2023-06-22T01:07:04;100825.69;;;21.10;47.92
79645;BME280;69117;47.148;18.954;2023-06-22T01:10:17;100831.72;;;21.12;47.80
79645;BME280;69117;47.148;18.954;2023-06-22T01:16:41;100819.28;;;21.18;47.68
79645;BME280;69117;47.148;18.954;2023-06-22T01:19:48;100808.13;;;21.08;47.72
79645;BME280;69117;47.148;18.954;2023-06-22T01:30:10;100795.25;;;20.96;47.60
79645;BME280;69117;47.148;18.954;2023-06-22T01:33:13;100791.75;;;20.96;47.77
79645;BME280;69117;47.148;18.954;2023-06-22T01:36:16;100799.22;;;21.00;47.85
79645;BME280;69117;47.148;18.954;2023-06-22T01:39:18;100791.34;;;20.92;47.86
79645;BME280;69117;47.148;18.954;2023-06-22T01:42:22;100785.53;;;20.89;47.79
79645;BME280;69117;47.148;18.954;2023-06-22T01:45:25;100795.00;;;20.78;47.78
79645;BME280;69117;47.148;18.954;2023-06-22T01:48:28;100799.50;;;20.71;47.97
79645;BME280;69117;47.148;18.954;2023-06-22T01:51:30;100799.75;;;20.76;47.75
79645;BME280;69117;47.148;18.954;2023-06-22T01:54:32;100805.31;;;20.74;47.76
79645;BME280;69117;47.148;18.954;2023-06-22T01:57:34;100807.19;;;20.80;47.66
79645;BME280;69117;47.148;18.954;2023-06-22T02:00:37;100805.25;;;20.61;47.77
79645;BME280;69117;47.148;18.954;2023-06-22T02:03:44;100807.34;;;20.66;47.91
79645;BME280;69117;47.148;18.954;2023-06-22T02:06:49;100807.16;;;20.67;47.93
79645;BME280;69117;47.148;18.954;2023-06-22T02:09:54;100805.75;;;20.43;47.91
79645;BME280;69117;47.148;18.954;2023-06-22T02:12:58;100799.22;;;20.52;47.94
79645;BME280;69117;47.148;18.954;2023-06-22T02:16:00;100803.81;;;20.58;47.98
79645;BME280;69117;47.148;18.954;2023-06-22T02:19:03;100803.59;;;20.60;48.21
79645;BME280;69117;47.148;18.954;2023-06-22T02:22:05;100796.03;;;20.42;48.01
79645;BME280;69117;47.148;18.954;2023-06-22T02:25:07;100810.78;;;20.53;47.92
79645;BME280;69117;47.148;18.954;2023-06-22T02:28:08;100816.59;;;20.56;47.89
79645;BME280;69117;47.148;18.954;2023-06-22T02:31:10;100804.13;;;20.49;47.92
79645;BME280;69117;47.148;18.954;2023-06-22T02:34:12;100815.03;;;20.41;47.96
79645;BME280;69117;47.148;18.954;2023-06-22T02:37:19;100808.13;;;20.25;48.00
79645;BME280;69117;47.148;18.954;2023-06-22T02:40:21;100810.00;;;20.31;48.09
79645;BME280;69117;47.148;18.954;2023-06-22T02:43:22;100818.28;;;20.36;48.10
79645;BME280;69117;47.148;18.954;2023-06-22T02:46:24;100816.38;;;20.30;48.11
79645;BME280;69117;47.148;18.954;2023-06-22T02:49:26;100823.66;;;20.36;48.06
79645;BME280;69117;47.148;18.954;2023-06-22T02:52:27;100829.88;;;20.36;48.27
79645;BME280;69117;47.148;18.954;2023-06-22T02:55:29;100828.22;;;20.42;48.08
79645;BME280;69117;47.148;18.954;2023-06-22T02:58:31;100827.25;;;20.50;48.08
79645;BME280;69117;47.148;18.954;2023-06-22T03:01:39;100830.34;;;20.47;48.17
79645;BME280;69117;47.148;18.954;2023-06-22T03:04:42;100838.81;;;20.50;48.03
79645;BME280;69117;47.148;18.954;2023-06-22T03:07:44;100847.16;;;20.55;48.28
79645;BME280;69117;47.148;18.954;2023-06-22T03:10:46;100841.38;;;20.58;48.37
79645;BME280;69117;47.148;18.954;2023-06-22T03:13:48;100835.88;;;20.67;48.28
79645;BME280;69117;47.148;18.954;2023-06-22T03:16:49;100837.53;;;20.74;48.53
79645;BME280;69117;47.148;18.954;2023-06-22T03:19:51;100837.78;;;20.79;48.49
79645;BME280;69117;47.148;18.954;2023-06-22T03:22:52;100835.28;;;20.85;48.29
79645;BME280;69117;47.148;18.954;2023-06-22T03:25:54;100825.19;;;20.87;48.46
79645;BME280;69117;47.148;18.954;2023-06-22T03:28:57;100838.06;;;21.04;48.56
79645;BME280;69117;47.148;18.954;2023-06-22T03:31:58;100835.81;;;21.15;48.50
79645;BME280;69117;47.148;18.954;2023-06-22T03:35:00;100829.03;;;21.19;48.53
79645;BME280;69117;47.148;18.954;2023-06-22T03:38:02;100832.56;;;21.33;48.46
79645;BME280;69117;47.148;18.954;2023-06-22T03:41:04;100823.53;;;21.40;48.49
79645;BME280;69117;47.148;18.954;2023-06-22T03:44:05;100825.81;;;21.37;48.42
79645;BME280;69117;47.148;18.954;2023-06-22T03:47:07;100816.09;;;21.42;48.61
79645;BME280;69117;47.148;18.954;2023-06-22T03:50:09;100824.72;;;21.31;48.41
79645;BME280;69117;47.148;18.954;2023-06-22T03:53:11;100825.72;;;21.30;48.47
79645;BME280;69117;47.148;18.954;2023-06-22T03:56:12;100831.34;;;21.35;48.37
79645;BME280;69117;47.148;18.954;2023-06-22T03:59:14;100827.44;;;21.38;48.41
79645;BME280;69117;47.148;18.954;2023-06-22T04:02:16;100838.03;;;21.53;49.18
79645;BME280;69117;47.148;18.954;2023-06-22T04:05:18;100842.38;;;21.54;50.15
79645;BME280;69117;47.148;18.954;2023-06-22T04:08:20;100849.84;;;21.58;50.04
79645;BME280;69117;47.148;18.954;2023-06-22T04:11:22;100844.69;;;21.77;50.16
79645;BME280;69117;47.148;18.954;2023-06-22T04:14:23;100844.91;;;21.82;50.41
79645;BME280;69117;47.148;18.954;2023-06-22T04:17:25;100851.72;;;21.91;50.22
79645;BME280;69117;47.148;18.954;2023-06-22T04:20:27;100858.97;;;21.97;50.39
79645;BME280;69117;47.148;18.954;2023-06-22T04:23:30;100841.38;;;22.01;50.32
79645;BME280;69117;47.148;18.954;2023-06-22T04:26:32;100852.75;;;22.10;50.24
79645;BME280;69117;47.148;18.954;2023-06-22T04:29:38;100846.13;;;22.06;50.30
79645;BME280;69117;47.148;18.954;2023-06-22T04:32:45;100847.56;;;22.02;50.25
79645;BME280;69117;47.148;18.954;2023-06-22T04:35:46;100853.81;;;22.09;50.16
79645;BME280;69117;47.148;18.954;2023-06-22T04:38:48;100849.66;;;22.13;50.33
79645;BME280;69117;47.148;18.954;2023-06-22T04:41:53;100862.28;;;22.32;50.16
79645;BME280;69117;47.148;18.954;2023-06-22T04:45:01;100865.59;;;22.41;50.08
79645;BME280;69117;47.148;18.954;2023-06-22T04:48:03;100868.91;;;22.43;50.13
79645;BME280;69117;47.148;18.954;2023-06-22T04:51:05;100864.56;;;22.49;50.09
79645;BME280;69117;47.148;18.954;2023-06-22T04:54:08;100870.75;;;22.49;50.13
79645;BME280;69117;47.148;18.954;2023-06-22T04:57:10;100871.31;;;22.71;50.16
79645;BME280;69117;47.148;18.954;2023-06-22T05:00:12;100870.28;;;22.72;50.13
79645;BME280;69117;47.148;18.954;2023-06-22T05:03:15;100875.88;;;22.71;50.10
79645;BME280;69117;47.148;18.954;2023-06-22T05:06:22;100869.84;;;22.82;50.07
79645;BME280;69117;47.148;18.954;2023-06-22T05:09:26;100864.06;;;22.72;50.10
79645;BME280;69117;47.148;18.954;2023-06-22T05:12:29;100871.91;;;22.80;50.02
79645;BME280;69117;47.148;18.954;2023-06-22T05:15:31;100878.50;;;23.04;50.13
79645;BME280;69117;47.148;18.954;2023-06-22T05:18:38;100884.47;;;23.13;50.05
79645;BME280;69117;47.148;18.954;2023-06-22T05:21:39;100872.00;;;23.18;50.01
79645;BME280;69117;47.148;18.954;2023-06-22T05:24:42;100873.63;;;23.26;50.06
79645;BME280;69117;47.148;18.954;2023-06-22T05:27:44;100882.28;;;23.35;50.07
79645;BME280;69117;47.148;18.954;2023-06-22T05:30:46;100878.50;;;23.49;49.96
79645;BME280;69117;47.148;18.954;2023-06-22T05:33:48;100884.63;;;23.69;50.02
79645;BME280;69117;47.148;18.954;2023-06-22T05:36:50;100897.00;;;23.77;49.90
79645;BME280;69117;47.148;18.954;2023-06-22T05:39:58;100894.22;;;24.15;49.91
79645;BME280;69117;47.148;18.954;2023-06-22T05:43:00;100900.78;;;24.26;49.64
79645;BME280;69117;47.148;18.954;2023-06-22T05:46:04;100901.03;;;24.68;49.51
79645;BME280;69117;47.148;18.954;2023-06-22T05:49:06;100908.69;;;24.89;49.34
79645;BME280;69117;47.148;18.954;2023-06-22T05:52:07;100895.63;;;24.86;49.27
79645;BME280;69117;47.148;18.954;2023-06-22T05:55:09;100904.06;;;25.15;49.10
79645;BME280;69117;47.148;18.954;2023-06-22T05:58:10;100902.66;;;25.43;49.22
79645;BME280;69117;47.148;18.954;2023-06-22T06:01:12;100909.16;;;25.53;49.11
79645;BME280;69117;47.148;18.954;2023-06-22T06:04:14;100906.84;;;25.39;48.98
79645;BME280;69117;47.148;18.954;2023-06-22T06:07:16;100904.72;;;25.59;49.21
79645;BME280;69117;47.148;18.954;2023-06-22T06:10:17;100907.13;;;25.19;48.66
79645;BME280;69117;47.148;18.954;2023-06-22T06:13:21;100905.22;;;25.68;77.09
79645;BME280;69117;47.148;18.954;2023-06-22T06:16:22;100907.59;;;25.76;75.66
79645;BME280;69117;47.148;18.954;2023-06-22T06:19:24;100905.19;;;25.98;74.91
79645;BME280;69117;47.148;18.954;2023-06-22T06:22:26;100908.63;;;26.17;76.25
79645;BME280;69117;47.148;18.954;2023-06-22T06:25:27;100907.81;;;26.28;74.76
79645;BME280;69117;47.148;18.954;2023-06-22T06:28:29;100914.19;;;26.22;75.49
79645;BME280;69117;47.148;18.954;2023-06-22T06:31:31;100907.59;;;26.65;75.51
79645;BME280;69117;47.148;18.954;2023-06-22T06:34:32;100906.31;;;26.79;72.07
79645;BME280;69117;47.148;18.954;2023-06-22T06:37:42;100908.44;;;26.54;71.25
79645;BME280;69117;47.148;18.954;2023-06-22T06:40:44;100901.47;;;26.46;73.62
79645;BME280;69117;47.148;18.954;2023-06-22T06:43:46;100902.19;;;26.77;74.25
79645;BME280;69117;47.148;18.954;2023-06-22T06:46:48;100898.53;;;27.23;73.15
79645;BME280;69117;47.148;18.954;2023-06-22T06:49:50;100894.97;;;27.34;71.85
79645;BME280;69117;47.148;18.954;2023-06-22T06:52:51;100886.66;;;27.12;72.83
79645;BME280;69117;47.148;18.954;2023-06-22T06:55:53;100887.19;;;27.26;71.43
79645;BME280;69117;47.148;18.954;2023-06-22T06:58:55;100884.25;;;27.28;74.07
79645;BME280;69117;47.148;18.954;2023-06-22T07:01:56;100887.00;;;27.16;71.32
79645;BME280;69117;47.148;18.954;2023-06-22T07:04:58;100889.44;;;27.29;72.95
79645;BME280;69117;47.148;18.954;2023-06-22T07:08:00;100885.28;;;27.38;73.08
79645;BME280;69117;47.148;18.954;2023-06-22T07:11:01;100886.06;;;27.51;71.71
79645;BME280;69117;47.148;18.954;2023-06-22T07:14:03;100886.59;;;27.36;74.00
79645;BME280;69117;47.148;18.954;2023-06-22T07:17:05;100886.97;;;27.28;67.93
79645;BME280;69117;47.148;18.954;2023-06-22T07:20:07;100885.38;;;27.44;69.49
79645;BME280;69117;47.148;18.954;2023-06-22T07:23:13;100884.59;;;27.77;67.93
79645;BME280;69117;47.148;18.954;2023-06-22T07:26:15;100883.50;;;28.06;70.08
79645;BME280;69117;47.148;18.954;2023-06-22T07:29:20;100884.91;;;28.09;73.71
79645;BME280;69117;47.148;18.954;2023-06-22T07:32:22;100892.94;;;28.38;70.44
79645;BME280;69117;47.148;18.954;2023-06-22T07:35:24;100883.88;;;28.49;65.11
79645;BME280;69117;47.148;18.954;2023-06-22T07:38:26;100880.34;;;28.31;66.05
79645;BME280;69117;47.148;18.954;2023-06-22T07:41:28;100886.16;;;28.40;69.47
79645;BME280;69117;47.148;18.954;2023-06-22T07:44:30;100889.09;;;28.50;65.87
79645;BME280;69117;47.148;18.954;2023-06-22T07:47:32;100883.47;;;29.01;67.82
79645;BME280;69117;47.148;18.954;2023-06-22T07:50:36;100883.53;;;28.84;66.65
79645;BME280;69117;47.148;18.954;2023-06-22T07:53:42;100884.34;;;29.29;67.18
79645;BME280;69117;47.148;18.954;2023-06-22T07:56:46;100877.72;;;28.75;65.47
79645;BME280;69117;47.148;18.954;2023-06-22T07:59:47;100879.63;;;29.19;65.67
79645;BME280;69117;47.148;18.954;2023-06-22T08:02:49;100877.69;;;29.14;64.53
79645;BME280;69117;47.148;18.954;2023-06-22T08:05:51;100868.72;;;29.19;65.82
79645;BME280;69117;47.148;18.954;2023-06-22T08:08:53;100870.69;;;29.02;62.44
79645;BME280;69117;47.148;18.954;2023-06-22T08:11:55;100877.66;;;29.63;61.96
79645;BME280;69117;47.148;18.954;2023-06-22T08:14:57;100877.03;;;29.88;64.76
79645;BME280;69117;47.148;18.954;2023-06-22T08:17:59;100880.97;;;29.71;61.31
79645;BME280;69117;47.148;18.954;2023-06-22T08:21:02;100869.97;;;30.25;62.37
79645;BME280;69117;47.148;18.954;2023-06-22T08:24:06;100871.72;;;30.41;61.82
79645;BME280;69117;47.148;18.954;2023-06-22T08:27:10;100875.81;;;30.39;60.79
79645;BME280;69117;47.148;18.954;2023-06-22T08:30:16;100871.19;;;30.44;65.57
79645;BME280;69117;47.148;18.954;2023-06-22T08:33:20;100871.78;;;30.51;62.89
79645;BME280;69117;47.148;18.954;2023-06-22T08:36:28;100876.25;;;30.73;59.75
79645;BME280;69117;47.148;18.954;2023-06-22T08:39:34;100858.53;;;30.75;61.23
79645;BME280;69117;47.148;18.954;2023-06-22T08:42:37;100859.84;;;30.68;59.34
79645;BME280;69117;47.148;18.954;2023-06-22T08:45:39;100867.84;;;30.32;59.11
79645;BME280;69117;47.148;18.954;2023-06-22T08:48:41;100862.00;;;30.61;57.88
79645;BME280;69117;47.148;18.954;2023-06-22T08:51:43;100866.28;;;30.46;59.43
79645;BME280;69117;47.148;18.954;2023-06-22T08:54:47;100847.09;;;30.78;59.87
79645;BME280;69117;47.148;18.954;2023-06-22T08:57:49;100851.22;;;30.86;58.73
79645;BME280;69117;47.148;18.954;2023-06-22T09:00:50;100837.81;;;30.79;59.18
79645;BME280;69117;47.148;18.954;2023-06-22T09:03:53;100836.41;;;30.77;59.24
79645;BME280;69117;47.148;18.954;2023-06-22T09:07:00;100835.13;;;30.32;57.78
79645;BME280;69117;47.148;18.954;2023-06-22T09:10:02;100832.94;;;30.92;59.31
79645;BME280;69117;47.148;18.954;2023-06-22T09:13:06;100825.13;;;31.26;58.55
79645;BME280;69117;47.148;18.954;2023-06-22T09:16:08;100831.16;;;31.74;57.03
79645;BME280;69117;47.148;18.954;2023-06-22T09:19:09;100831.38;;;31.11;55.83
79645;BME280;69117;47.148;18.954;2023-06-22T09:22:11;100823.81;;;31.59;56.01
79645;BME280;69117;47.148;18.954;2023-06-22T09:25:13;100813.16;;;31.42;55.31
79645;BME280;69117;47.148;18.954;2023-06-22T09:28:15;100813.97;;;31.63;54.94
79645;BME280;69117;47.148;18.954;2023-06-22T09:31:16;100812.00;;;32.20;53.20
79645;BME280;69117;47.148;18.954;2023-06-22T09:34:18;100813.09;;;32.24;55.43
79645;BME280;69117;47.148;18.954;2023-06-22T09:37:21;100816.16;;;31.61;53.45
79645;BME280;69117;47.148;18.954;2023-06-22T09:40:23;100804.81;;;32.39;53.00
79645;BME280;69117;47.148;18.954;2023-06-22T09:43:24;100806.31;;;32.76;53.24
79645;BME280;69117;47.148;18.954;2023-06-22T09:46:26;100804.22;;;32.58;52.22
79645;BME280;69117;47.148;18.954;2023-06-22T09:49:28;100810.25;;;32.55;53.12
79645;BME280;69117;47.148;18.954;2023-06-22T09:52:48;100802.63;;;32.52;52.38
79645;BME280;69117;47.148;18.954;2023-06-22T09:55:52;100795.25;;;32.97;49.34
79645;BME280;69117;47.148;18.954;2023-06-22T09:58:53;100798.66;;;31.93;52.80
79645;BME280;69117;47.148;18.954;2023-06-22T10:02:06;100796.88;;;32.48;51.17
79645;BME280;69117;47.148;18.954;2023-06-22T10:05:08;100795.28;;;32.92;51.85
79645;BME280;69117;47.148;18.954;2023-06-22T10:08:10;100798.41;;;32.75;51.74
79645;BME280;69117;47.148;18.954;2023-06-22T10:11:12;100796.78;;;33.23;51.07
79645;BME280;69117;47.148;18.954;2023-06-22T10:14:14;100796.94;;;32.93;50.41
79645;BME280;69117;47.148;18.954;2023-06-22T10:17:15;100794.06;;;33.52;50.78
79645;BME280;69117;47.148;18.954;2023-06-22T10:20:17;100783.19;;;33.42;50.03
79645;BME280;69117;47.148;18.954;2023-06-22T10:23:20;100797.84;;;33.62;50.09
79645;BME280;69117;47.148;18.954;2023-06-22T10:26:22;100790.84;;;33.45;49.67
79645;BME280;69117;47.148;18.954;2023-06-22T10:29:23;100793.63;;;34.04;46.96
79645;BME280;69117;47.148;18.954;2023-06-22T10:32:25;100784.09;;;33.96;47.67
79645;BME280;69117;47.148;18.954;2023-06-22T10:35:27;100786.66;;;32.74;50.38
79645;BME280;69117;47.148;18.954;2023-06-22T10:38:29;100783.81;;;33.68;50.23
79645;BME280;69117;47.148;18.954;2023-06-22T10:41:31;100781.94;;;34.65;46.56
79645;BME280;69117;47.148;18.954;2023-06-22T10:44:32;100783.63;;;34.61;46.29
79645;BME280;69117;47.148;18.954;2023-06-22T10:47:34;100784.09;;;34.87;46.56
79645;BME280;69117;47.148;18.954;2023-06-22T10:50:36;100780.13;;;34.55;48.53
79645;BME280;69117;47.148;18.954;2023-06-22T10:53:38;100772.38;;;35.19;46.96
79645;BME280;69117;47.148;18.954;2023-06-22T10:56:40;100778.78;;;35.15;44.93
79645;BME280;69117;47.148;18.954;2023-06-22T10:59:41;100773.34;;;35.61;43.70
79645;BME280;69117;47.148;18.954;2023-06-22T11:02:43;100770.97;;;35.54;45.87
79645;BME280;69117;47.148;18.954;2023-06-22T11:05:46;100769.25;;;35.26;45.25
79645;BME280;69117;47.148;18.954;2023-06-22T11:08:49;100778.53;;;35.63;44.76
79645;BME280;69117;47.148;18.954;2023-06-22T11:12:06;100783.56;;;35.74;42.92
79645;BME280;69117;47.148;18.954;2023-06-22T11:15:08;100771.09;;;35.30;46.29
79645;BME280;69117;47.148;18.954;2023-06-22T11:18:10;100779.78;;;34.62;44.04
79645;BME280;69117;47.148;18.954;2023-06-22T11:21:12;100767.06;;;35.74;44.11
79645;BME280;69117;47.148;18.954;2023-06-22T11:24:13;100769.84;;;36.43;41.59
79645;BME280;69117;47.148;18.954;2023-06-22T11:27:15;100761.88;;;36.00;41.14
79645;BME280;69117;47.148;18.954;2023-06-22T11:30:17;100763.38;;;35.32;42.90
79645;BME280;69117;47.148;18.954;2023-06-22T11:33:18;100756.47;;;35.95;40.16
79645;BME280;69117;47.148;18.954;2023-06-22T11:36:20;100753.38;;;35.55;43.35
79645;BME280;69117;47.148;18.954;2023-06-22T11:39:22;100749.38;;;36.08;43.57
79645;BME280;69117;47.148;18.954;2023-06-22T11:42:47;100742.31;;;35.88;42.68
79645;BME280;69117;47.148;18.954;2023-06-22T11:45:49;100751.72;;;36.15;42.56
79645;BME280;69117;47.148;18.954;2023-06-22T11:48:50;100738.91;;;36.74;41.60
79645;BME280;69117;47.148;18.954;2023-06-22T11:51:53;100741.16;;;37.62;41.94
79645;BME280;69117;47.148;18.954;2023-06-22T11:54:54;100738.94;;;36.60;39.72
79645;BME280;69117;47.148;18.954;2023-06-22T11:57:57;100733.78;;;36.17;39.75
79645;BME280;69117;47.148;18.954;2023-06-22T12:01:04;100734.66;;;37.35;42.19
79645;BME280;69117;47.148;18.954;2023-06-22T12:04:06;100732.88;;;37.62;38.24
79645;BME280;69117;47.148;18.954;2023-06-22T12:07:08;100730.44;;;36.93;40.37
79645;BME280;69117;47.148;18.954;2023-06-22T12:10:09;100727.78;;;37.87;37.77
79645;BME280;69117;47.148;18.954;2023-06-22T12:13:11;100720.91;;;37.13;37.54
79645;BME280;69117;47.148;18.954;2023-06-22T12:16:13;100724.53;;;38.33;37.96
79645;BME280;69117;47.148;18.954;2023-06-22T12:19:14;100716.13;;;38.82;35.03
79645;BME280;69117;47.148;18.954;2023-06-22T12:22:16;100719.47;;;38.26;35.14
79645;BME280;69117;47.148;18.954;2023-06-22T12:25:18;100716.69;;;38.09;38.31
79645;BME280;69117;47.148;18.954;2023-06-22T12:28:19;100712.38;;;37.23;37.59
79645;BME280;69117;47.148;18.954;2023-06-22T12:31:21;100698.81;;;38.07;37.26
79645;BME280;69117;47.148;18.954;2023-06-22T12:34:23;100711.00;;;37.12;37.56
79645;BME280;69117;47.148;18.954;2023-06-22T12:37:24;100707.72;;;37.64;39.64
79645;BME280;69117;47.148;18.954;2023-06-22T12:40:26;100707.84;;;38.56;36.55
79645;BME280;69117;47.148;18.954;2023-06-22T12:43:28;100694.34;;;38.63;35.05
79645;BME280;69117;47.148;18.954;2023-06-22T12:46:30;100697.13;;;39.62;35.03
79645;BME280;69117;47.148;18.954;2023-06-22T12:49:38;100690.75;;;36.94;35.33
79645;BME280;69117;47.148;18.954;2023-06-22T12:52:40;100689.63;;;38.81;36.40
79645;BME280;69117;47.148;18.954;2023-06-22T12:55:42;100683.41;;;39.74;32.47
79645;BME280;69117;47.148;18.954;2023-06-22T12:58:44;100676.72;;;39.28;32.09
79645;BME280;69117;47.148;18.954;2023-06-22T13:01:46;100682.31;;;39.58;34.86
79645;BME280;69117;47.148;18.954;2023-06-22T13:04:47;100684.59;;;38.83;36.09
79645;BME280;69117;47.148;18.954;2023-06-22T13:07:49;100669.13;;;39.93;33.93
79645;BME280;69117;47.148;18.954;2023-06-22T13:10:51;100669.78;;;39.05;34.27
79645;BME280;69117;47.148;18.954;2023-06-22T13:13:52;100669.47;;;38.19;33.67
79645;BME280;69117;47.148;18.954;2023-06-22T13:16:54;100657.16;;;39.42;33.74
79645;BME280;69117;47.148;18.954;2023-06-22T13:19:56;100654.38;;;38.34;34.12
79645;BME280;69117;47.148;18.954;2023-06-22T13:22:57;100648.97;;;39.07;33.89
79645;BME280;69117;47.148;18.954;2023-06-22T13:25:59;100640.00;;;39.57;31.99
79645;BME280;69117;47.148;18.954;2023-06-22T13:29:01;100643.75;;;40.12;32.01
79645;BME280;69117;47.148;18.954;2023-06-22T13:32:03;100645.09;;;40.06;33.39
79645;BME280;69117;47.148;18.954;2023-06-22T13:35:05;100642.00;;;39.48;32.20
79645;BME280;69117;47.148;18.954;2023-06-22T13:38:08;100654.19;;;38.13;33.71
79645;BME280;69117;47.148;18.954;2023-06-22T13:41:10;100644.94;;;38.87;34.13
79645;BME280;69117;47.148;18.954;2023-06-22T13:44:12;100645.34;;;39.15;32.89
79645;BME280;69117;47.148;18.954;2023-06-22T13:47:13;100650.84;;;39.24;33.64
79645;BME280;69117;47.148;18.954;2023-06-22T13:50:15;100644.78;;;38.66;34.98
79645;BME280;69117;47.148;18.954;2023-06-22T13:53:17;100637.00;;;38.51;35.16
79645;BME280;69117;47.148;18.954;2023-06-22T13:56:18;100636.09;;;40.39;32.67
79645;BME280;69117;47.148;18.954;2023-06-22T13:59:21;100620.19;;;38.82;33.09
79645;BME280;69117;47.148;18.954;2023-06-22T14:02:23;100612.84;;;39.89;31.46
79645;BME280;69117;47.148;18.954;2023-06-22T14:05:24;100622.28;;;39.58;32.83
79645;BME280;69117;47.148;18.954;2023-06-22T14:08:26;100618.56;;;39.84;31.72
79645;BME280;69117;47.148;18.954;2023-06-22T14:11:31;100610.06;;;39.59;33.34
79645;BME280;69117;47.148;18.954;2023-06-22T14:14:33;100609.78;;;39.82;33.57
79645;BME280;69117;47.148;18.954;2023-06-22T14:17:35;100610.00;;;38.74;37.55
79645;BME280;69117;47.148;18.954;2023-06-22T14:20:36;100605.09;;;39.44;34.13
79645;BME280;69117;47.148;18.954;2023-06-22T14:23:38;100600.97;;;40.10;31.41
79645;BME280;69117;47.148;18.954;2023-06-22T14:26:40;100596.06;;;40.48;32.47
79645;BME280;69117;47.148;18.954;2023-06-22T14:29:42;100594.31;;;39.13;33.26
79645;BME280;69117;47.148;18.954;2023-06-22T14:32:44;100593.22;;;40.15;32.83
79645;BME280;69117;47.148;18.954;2023-06-22T14:35:46;100581.75;;;39.83;34.13
79645;BME280;69117;47.148;18.954;2023-06-22T14:38:48;100586.66;;;40.28;32.30
79645;BME280;69117;47.148;18.954;2023-06-22T14:41:50;100584.59;;;41.04;32.18
79645;BME280;69117;47.148;18.954;2023-06-22T14:44:52;100576.69;;;38.36;35.00
79645;BME280;69117;47.148;18.954;2023-06-22T14:47:53;100579.47;;;38.53;35.46
79645;BME280;69117;47.148;18.954;2023-06-22T14:50:55;100580.84;;;39.71;34.66
79645;BME280;69117;47.148;18.954;2023-06-22T14:53:57;100577.38;;;40.58;29.18
79645;BME280;69117;47.148;18.954;2023-06-22T14:56:58;100580.47;;;38.22;32.36
79645;BME280;69117;47.148;18.954;2023-06-22T15:00:00;100576.94;;;39.42;32.89
79645;BME280;69117;47.148;18.954;2023-06-22T15:03:04;100572.94;;;40.32;32.87
79645;BME280;69117;47.148;18.954;2023-06-22T15:06:08;100577.09;;;40.38;30.23
79645;BME280;69117;47.148;18.954;2023-06-22T15:09:10;100565.44;;;38.93;33.08
79645;BME280;69117;47.148;18.954;2023-06-22T15:12:12;100567.50;;;39.05;33.67
79645;BME280;69117;47.148;18.954;2023-06-22T15:15:14;100560.94;;;38.62;33.55
79645;BME280;69117;47.148;18.954;2023-06-22T15:18:16;100560.63;;;38.20;34.17
79645;BME280;69117;47.148;18.954;2023-06-22T15:21:18;100569.63;;;37.11;37.42
79645;BME280;69117;47.148;18.954;2023-06-22T15:24:20;100558.22;;;37.93;34.10
79645;BME280;69117;47.148;18.954;2023-06-22T15:27:22;100556.31;;;39.01;34.68
79645;BME280;69117;47.148;18.954;2023-06-22T15:30:23;100553.47;;;38.63;34.71
79645;BME280;69117;47.148;18.954;2023-06-22T15:33:25;100556.69;;;37.78;34.27
79645;BME280;69117;47.148;18.954;2023-06-22T15:36:27;100554.50;;;37.00;34.89
79645;BME280;69117;47.148;18.954;2023-06-22T15:39:28;100555.53;;;37.53;34.56
79645;BME280;69117;47.148;18.954;2023-06-22T15:42:30;100554.94;;;38.52;33.72
79645;BME280;69117;47.148;18.954;2023-06-22T15:45:32;100547.59;;;37.20;34.17
79645;BME280;69117;47.148;18.954;2023-06-22T15:48:34;100549.22;;;36.90;37.53
79645;BME280;69117;47.148;18.954;2023-06-22T15:51:41;100551.00;;;37.66;35.38
79645;BME280;69117;47.148;18.954;2023-06-22T15:54:43;100549.19;;;39.59;34.06